createdAt,value
2022-09-10T00:00:43.828Z,97717.63
2022-09-10T00:03:11.845Z,97726.63
2022-09-10T00:05:41.379Z,97727.03
2022-09-10T00:08:08.139Z,97728.13
2022-09-10T00:10:41.035Z,97727.28
2022-09-10T00:13:07.455Z,97738.13
2022-09-10T00:15:40.638Z,97732.56
2022-09-10T00:18:08.367Z,97734.84
2022-09-10T00:20:55.203Z,97731.16
2022-09-10T00:23:23.557Z,97732.78
2022-09-10T00:25:51.954Z,97737.97
2022-09-10T00:28:18.278Z,97734.53
2022-09-10T00:30:46.576Z,97745.13
2022-09-10T00:33:14.439Z,97751.59
2022-09-10T00:35:40.840Z,97748.66
2022-09-10T00:38:07.352Z,97750.34
2022-09-10T00:40:33.654Z,97755.59
2022-09-10T00:43:00.010Z,97762.41
2022-09-10T00:45:29.863Z,97761.53
2022-09-10T00:47:57.116Z,97756.91
2022-09-10T00:50:24.810Z,97761.00
2022-09-10T00:52:51.968Z,97761.81
2022-09-10T00:55:18.319Z,97767.41
2022-09-10T00:57:46.084Z,97766.69
2022-09-10T01:00:13.120Z,97763.47
2022-09-10T01:02:40.007Z,97765.06
2022-09-10T01:05:06.839Z,97757.56
2022-09-10T01:07:33.657Z,97763.63
2022-09-10T01:10:00.278Z,97764.03
2022-09-10T01:12:35.962Z,97757.28
2022-09-10T01:15:08.002Z,97763.53
2022-09-10T01:17:39.821Z,97761.56
2022-09-10T01:20:14.878Z,97759.53
2022-09-10T01:22:41.729Z,97759.22
2022-09-10T01:25:11.120Z,97763.63
2022-09-10T01:27:42.534Z,97760.38
2022-09-10T01:30:19.621Z,97774.56
2022-09-10T01:32:52.019Z,97757.25
2022-09-10T01:35:19.003Z,97773.16
2022-09-10T01:37:49.137Z,97777.63
2022-09-10T01:40:17.289Z,97771.34
2022-09-10T01:42:43.614Z,97769.78
2022-09-10T01:45:11.710Z,97775.72
2022-09-10T01:47:40.970Z,97764.97
2022-09-10T01:50:16.865Z,97765.00
2022-09-10T01:52:53.680Z,97765.84
2022-09-10T01:55:22.044Z,97761.50
2022-09-10T01:57:58.906Z,97757.53
2022-09-10T02:00:25.293Z,97764.72
2022-09-10T02:03:07.830Z,97759.53
2022-09-10T02:05:35.262Z,97757.53
2022-09-10T02:08:02.313Z,97760.34
2022-09-10T02:10:28.636Z,97753.97
2022-09-10T02:12:55.390Z,97755.94
2022-09-10T02:15:22.659Z,97757.53
2022-09-10T02:17:49.236Z,97754.41
2022-09-10T02:20:15.562Z,97760.75
2022-09-10T02:22:42.628Z,97752.78
2022-09-10T02:25:09.855Z,97753.59
2022-09-10T02:27:36.425Z,97755.97
2022-09-10T02:30:02.885Z,97760.75
2022-09-10T02:32:29.193Z,97755.94
2022-09-10T02:34:55.794Z,97757.97
2022-09-10T02:37:22.325Z,97763.06
2022-09-10T02:39:48.950Z,97753.16
2022-09-10T02:42:18.042Z,97753.16
2022-09-10T02:44:44.835Z,97763.09
2022-09-10T02:47:11.199Z,97757.88
2022-09-10T02:49:37.503Z,97757.56
2022-09-10T02:52:04.199Z,97755.13
2022-09-10T02:54:30.578Z,97762.25
2022-09-10T02:56:56.910Z,97753.03
2022-09-10T02:59:23.986Z,97758.16
2022-09-10T03:01:50.305Z,97757.75
2022-09-10T03:04:16.902Z,97758.94
2022-09-10T03:06:49.244Z,97753.38
2022-09-10T03:09:15.810Z,97754.88
2022-09-10T03:11:42.118Z,97756.47
2022-09-10T03:14:12.128Z,97755.75
2022-09-10T03:16:40.151Z,97763.63
2022-09-10T03:19:06.497Z,97762.44
2022-09-10T03:21:34.322Z,97754.53
2022-09-10T03:24:01.157Z,97758.88
2022-09-10T03:26:27.718Z,97759.75
2022-09-10T03:28:54.020Z,97762.59
2022-09-10T03:31:21.711Z,97759.38
2022-09-10T03:33:48.152Z,97753.44
2022-09-10T03:36:14.477Z,97752.59
2022-09-10T03:38:40.943Z,97752.63
2022-09-10T03:41:07.397Z,97752.63
2022-09-10T03:43:33.721Z,97753.88
2022-09-10T03:46:00.068Z,97748.28
2022-09-10T03:48:26.423Z,97742.38
2022-09-10T03:50:52.760Z,97746.69
2022-09-10T03:53:19.209Z,97744.66
2022-09-10T03:55:46.210Z,97741.50
2022-09-10T03:58:12.510Z,97749.84
2022-09-10T04:00:38.938Z,97751.03
2022-09-10T04:03:05.588Z,97760.59
2022-09-10T04:05:32.282Z,97761.50
2022-09-10T04:07:58.746Z,97765.84
2022-09-10T04:10:25.833Z,97762.25
2022-09-10T04:12:54.834Z,97767.03
2022-09-10T04:15:21.583Z,97764.19
2022-09-10T04:17:51.389Z,97775.72
2022-09-10T04:20:18.372Z,97768.16
2022-09-10T04:22:44.744Z,97763.78
2022-09-10T04:25:11.247Z,97770.88
2022-09-10T04:27:37.567Z,97775.69
2022-09-10T04:30:03.991Z,97773.31
2022-09-10T04:32:30.314Z,97770.94
2022-09-10T04:34:56.617Z,97778.06
2022-09-10T04:37:23.197Z,97779.31
2022-09-10T04:39:49.561Z,97781.72
2022-09-10T04:42:18.909Z,97772.88
2022-09-10T04:44:45.281Z,97777.97
2022-09-10T04:47:12.253Z,97778.03
2022-09-10T04:49:38.595Z,97779.25
2022-09-10T04:52:04.928Z,97791.50
2022-09-10T04:54:33.503Z,97791.94
2022-09-10T04:57:00.804Z,97787.94
2022-09-10T04:59:27.959Z,97789.38
2022-09-10T05:01:54.374Z,97793.78
2022-09-10T05:04:20.739Z,97794.97
2022-09-10T05:06:50.247Z,97791.47
2022-09-10T05:09:19.840Z,97794.28
2022-09-10T05:11:47.148Z,97792.28
2022-09-10T05:14:13.709Z,97796.75
2022-09-10T05:16:40.326Z,97792.28
2022-09-10T05:19:06.664Z,97792.28
2022-09-10T05:21:33.446Z,97791.13
2022-09-10T05:23:59.774Z,97795.63
2022-09-10T05:26:27.627Z,97790.81
2022-09-10T05:28:54.870Z,97783.25
2022-09-10T05:31:21.289Z,97787.97
2022-09-10T05:33:47.638Z,97785.19
2022-09-10T05:36:14.698Z,97788.78
2022-09-10T05:38:44.502Z,97796.72
2022-09-10T05:41:11.565Z,97788.47
2022-09-10T05:43:37.875Z,97792.84
2022-09-10T05:46:04.564Z,97792.03
2022-09-10T05:48:31.150Z,97789.72
2022-09-10T05:50:57.553Z,97789.78
2022-09-10T05:53:24.203Z,97795.78
2022-09-10T05:55:50.596Z,97797.38
2022-09-10T05:58:16.915Z,97791.41
2022-09-10T06:00:43.262Z,97781.03
2022-09-10T06:03:10.338Z,97791.03
2022-09-10T06:05:37.026Z,97786.34
2022-09-10T06:08:06.685Z,97789.47
2022-09-10T06:10:35.149Z,97788.34
2022-09-10T06:13:01.461Z,97778.06
2022-09-10T06:15:27.824Z,97784.06
2022-09-10T06:17:55.620Z,97779.31
2022-09-10T06:20:21.931Z,97786.09
2022-09-10T06:22:48.305Z,97768.22
2022-09-10T06:25:14.627Z,97783.31
2022-09-10T06:27:41.449Z,97784.16
2022-09-10T06:30:07.854Z,97786.44
2022-09-10T06:32:34.187Z,97778.16
2022-09-10T06:35:00.507Z,97781.03
2022-09-10T06:37:26.983Z,97786.22
2022-09-10T06:39:53.672Z,97783.47
2022-09-10T06:42:20.017Z,97781.84
2022-09-10T06:44:46.421Z,97787.06
2022-09-10T06:48:01.072Z,97785.84
2022-09-10T06:49:59.805Z,97791.50
2022-09-10T06:52:28.203Z,97789.16
2022-09-10T06:54:54.786Z,97786.81
2022-09-10T06:57:21.096Z,97783.66
2022-09-10T06:59:47.557Z,97790.38
2022-09-10T07:02:17.234Z,97789.16
2022-09-10T07:04:43.639Z,97781.94
2022-09-10T07:07:10.007Z,97784.34
2022-09-10T07:09:36.353Z,97782.47
2022-09-10T07:12:04.818Z,97797.25
2022-09-10T07:14:32.281Z,97802.09
2022-09-10T07:16:58.834Z,97803.75
2022-09-10T07:19:25.157Z,97806.94
2022-09-10T07:21:51.716Z,97802.16
2022-09-10T07:24:19.971Z,97801.34
2022-09-10T07:26:46.999Z,97797.78
2022-09-10T07:29:13.317Z,97808.16
2022-09-10T07:31:41.794Z,97808.59
2022-09-10T07:34:08.871Z,97805.38
2022-09-10T07:36:35.193Z,97802.63
2022-09-10T07:39:01.877Z,97818.59
2022-09-10T07:41:29.942Z,97824.53
2022-09-10T07:43:56.643Z,97830.53
2022-09-10T07:46:24.820Z,97819.38
2022-09-10T07:48:55.619Z,97830.53
2022-09-10T07:51:21.926Z,97822.53
2022-09-10T07:53:51.761Z,97831.72
2022-09-10T07:56:18.135Z,97834.88
2022-09-10T07:58:44.769Z,97837.69
2022-09-10T08:01:12.394Z,97833.72
2022-09-10T08:03:39.077Z,97832.56
2022-09-10T08:06:06.680Z,97833.78
2022-09-10T08:08:33.445Z,97846.63
2022-09-10T08:11:13.030Z,97847.91
2022-09-10T08:13:44.983Z,97846.28
2022-09-10T08:16:12.661Z,97848.28
2022-09-10T08:18:39.523Z,97847.50
2022-09-10T08:21:06.132Z,97851.91
2022-09-10T08:23:32.717Z,97859.84
2022-09-10T08:25:59.143Z,97861.09
2022-09-10T08:28:26.060Z,97859.88
2022-09-10T08:31:02.399Z,97861.47
2022-09-10T08:33:29.048Z,97866.28
2022-09-10T08:35:58.828Z,97864.66
2022-09-10T08:38:34.762Z,97863.09
2022-09-10T08:41:01.673Z,97871.88
2022-09-10T08:43:31.239Z,97870.28
2022-09-10T08:45:57.773Z,97862.28
2022-09-10T08:48:24.209Z,97873.50
2022-09-10T08:50:53.211Z,97878.69
2022-09-10T08:53:25.855Z,97874.69
2022-09-10T08:55:52.860Z,97876.69
2022-09-10T08:58:20.851Z,97874.28
2022-09-10T09:00:47.175Z,97875.47
2022-09-10T09:03:13.507Z,97877.88
2022-09-10T09:05:45.345Z,97875.88
2022-09-10T09:08:19.088Z,97871.47
2022-09-10T09:10:49.489Z,97875.88
2022-09-10T09:13:32.070Z,97881.47
2022-09-10T09:16:17.913Z,97889.50
2022-09-10T09:18:47.176Z,97898.28
2022-09-10T09:21:15.858Z,97885.88
2022-09-10T09:24:13.695Z,97893.44
2022-09-10T09:26:40.338Z,97888.16
2022-09-10T09:29:07.786Z,97893.38
2022-09-10T09:31:37.981Z,97888.47
2022-09-10T09:34:06.793Z,97891.69
2022-09-10T09:36:34.521Z,97893.25
2022-09-10T09:39:00.908Z,97896.44
2022-09-10T09:41:46.660Z,97897.25
2022-09-10T09:44:15.920Z,97902.03
2022-09-10T09:46:42.553Z,97905.22
2022-09-10T09:49:10.026Z,97896.41
2022-09-10T09:51:36.571Z,97903.13
2022-09-10T09:54:39.306Z,97901.97
2022-09-10T09:56:54.615Z,97899.25
2022-09-10T09:59:24.940Z,97894.91
2022-09-10T10:01:51.826Z,97888.56
2022-09-10T10:04:22.498Z,97885.91
2022-09-10T10:06:58.656Z,97889.84
2022-09-10T10:09:28.895Z,97887.06
2022-09-10T10:11:55.999Z,97883.81
2022-09-10T10:14:23.665Z,97885.31
2022-09-10T10:16:52.084Z,97888.16
2022-09-10T10:19:31.667Z,97883.78
2022-09-10T10:22:11.533Z,97878.22
2022-09-10T10:24:37.835Z,97889.81
2022-09-10T10:27:04.395Z,97878.19
2022-09-10T10:29:30.698Z,97885.34
2022-09-10T10:31:57.423Z,97887.66
2022-09-10T10:34:44.986Z,97883.38
2022-09-10T10:37:14.761Z,97881.34
2022-09-10T10:40:01.189Z,97887.75
2022-09-10T10:43:00.204Z,97878.47
2022-09-10T10:45:32.453Z,97884.84
2022-09-10T10:48:09.895Z,97882.19
2022-09-10T10:50:44.297Z,97885.59
2022-09-10T10:53:15.551Z,97887.16
2022-09-10T10:55:43.007Z,97885.03
2022-09-10T10:58:16.685Z,97883.16
2022-09-10T11:00:44.129Z,97883.66
2022-09-10T11:03:37.603Z,97885.16
2022-09-10T11:06:05.067Z,97884.13
2022-09-10T11:08:31.398Z,97885.91
2022-09-10T11:11:03.946Z,97877.88
2022-09-10T11:13:40.245Z,97884.13
2022-09-10T11:16:12.977Z,97877.41
2022-09-10T11:18:42.842Z,97881.06
2022-09-10T11:21:16.358Z,97875.84
2022-09-10T11:23:45.153Z,97873.06
2022-09-10T11:26:12.299Z,97870.59
2022-09-10T11:28:40.941Z,97875.59
2022-09-10T11:31:12.992Z,97873.88
2022-09-10T11:33:53.238Z,97882.91
2022-09-10T11:36:46.096Z,97885.03
2022-09-10T11:39:28.683Z,97880.06
2022-09-10T11:41:55.171Z,97879.84
2022-09-10T11:44:24.684Z,97879.50
2022-09-10T11:47:09.971Z,97877.97
2022-09-10T11:49:44.064Z,97868.91
2022-09-10T11:52:11.935Z,97881.38
2022-09-10T11:54:38.994Z,97871.78
2022-09-10T11:57:09.927Z,97873.34
2022-09-10T11:59:43.662Z,97870.66
2022-09-10T12:02:28.997Z,97871.03
2022-09-10T12:05:01.720Z,97875.41
2022-09-10T12:07:31.016Z,97872.97
2022-09-10T12:10:09.958Z,97876.63
2022-09-10T12:12:43.627Z,97871.06
2022-09-10T12:15:13.108Z,97873.63
2022-09-10T12:17:39.625Z,97879.53
2022-09-10T12:20:06.133Z,97872.22
2022-09-10T12:22:36.848Z,97866.25
2022-09-10T12:25:04.221Z,97883.06
2022-09-10T12:27:49.042Z,97879.03
2022-09-10T12:30:24.488Z,97877.03
2022-09-10T12:32:53.027Z,97875.53
2022-09-10T12:35:28.867Z,97870.78
2022-09-10T12:38:15.440Z,97871.59
2022-09-10T12:40:45.564Z,97872.41
2022-09-10T12:43:44.652Z,97877.22
2022-09-10T12:46:12.588Z,97881.34
2022-09-10T12:49:04.033Z,97886.66
2022-09-10T12:51:33.172Z,97876.84
2022-09-10T12:54:05.593Z,97876.94
2022-09-10T12:56:48.065Z,97875.97
2022-09-10T12:59:23.827Z,97868.03
2022-09-10T13:01:51.338Z,97872.53
2022-09-10T13:04:20.219Z,97859.78
2022-09-10T13:06:50.295Z,97860.72
2022-09-10T13:09:20.780Z,97861.09
2022-09-10T13:11:49.954Z,97861.06
2022-09-10T13:14:30.603Z,97866.22
2022-09-10T13:16:57.240Z,97872.63
2022-09-10T13:19:23.514Z,97864.28
2022-09-10T13:21:51.979Z,97869.97
2022-09-10T13:24:48.690Z,97866.56
2022-09-10T13:27:48.495Z,97866.53
2022-09-10T13:30:16.249Z,97871.31
2022-09-10T13:32:48.899Z,97858.94
2022-09-10T13:35:21.523Z,97867.81
2022-09-10T13:38:07.536Z,97862.56
2022-09-10T13:40:43.319Z,97864.13
2022-09-10T13:43:16.941Z,97865.72
2022-09-10T13:45:47.689Z,97865.72
2022-09-10T13:48:22.502Z,97869.38
2022-09-10T13:50:58.524Z,97873.38
2022-09-10T13:53:25.361Z,97869.81
2022-09-10T13:55:55.150Z,97874.59
2022-09-10T13:58:23.161Z,97874.13
2022-09-10T14:00:53.426Z,97872.97
2022-09-10T14:03:21.467Z,97870.13
2022-09-10T14:05:54.411Z,97874.00
2022-09-10T14:08:22.287Z,97869.56
2022-09-10T14:11:09.080Z,97870.09
2022-09-10T14:13:41.528Z,97868.44
2022-09-10T14:16:09.977Z,97862.56
2022-09-10T14:18:39.653Z,97868.53
2022-09-10T14:21:06.056Z,97862.91
2022-09-10T14:23:32.512Z,97868.13
2022-09-10T14:26:23.222Z,97869.34
2022-09-10T14:28:52.560Z,97869.41
2022-09-10T14:31:22.974Z,97871.81
2022-09-10T14:33:49.359Z,97862.69
2022-09-10T14:36:16.836Z,97872.69
2022-09-10T14:38:43.303Z,97863.94
2022-09-10T14:41:25.708Z,97862.78
2022-09-10T14:44:11.450Z,97867.59
2022-09-10T14:46:49.774Z,97866.00
2022-09-10T14:49:17.231Z,97865.50
2022-09-10T14:51:43.570Z,97862.19
2022-09-10T14:54:14.513Z,97863.66
2022-09-10T14:56:47.330Z,97861.16
2022-09-10T14:59:13.600Z,97861.00
2022-09-10T15:01:43.698Z,97865.59
2022-09-10T15:04:13.863Z,97862.78
2022-09-10T15:06:41.047Z,97859.00
2022-09-10T15:09:08.055Z,97858.50
2022-09-10T15:11:34.664Z,97855.09
2022-09-10T15:14:01.003Z,97857.47
2022-09-10T15:16:27.682Z,97852.22
2022-09-10T15:18:54.040Z,97852.19
2022-09-10T15:21:20.457Z,97856.59
2022-09-10T15:23:48.141Z,97858.63
2022-09-10T15:26:14.703Z,97859.13
2022-09-10T15:28:41.174Z,97863.63
2022-09-10T15:31:07.974Z,97858.91
2022-09-10T15:33:34.570Z,97856.50
2022-09-10T15:36:01.303Z,97857.38
2022-09-10T15:38:27.738Z,97862.13
2022-09-10T15:40:54.197Z,97864.97
2022-09-10T15:43:22.636Z,97859.81
2022-09-10T15:45:49.903Z,97854.97
2022-09-10T15:48:16.255Z,97859.38
2022-09-10T15:50:43.371Z,97861.81
2022-09-10T15:53:12.031Z,97853.00
2022-09-10T15:55:38.877Z,97865.44
2022-09-10T15:58:05.239Z,97869.03
2022-09-10T16:00:32.974Z,97866.69
2022-09-10T16:02:59.389Z,97873.50
2022-09-10T16:05:25.784Z,97871.50
2022-09-10T16:07:52.111Z,97867.88
2022-09-10T16:10:18.484Z,97873.09
2022-09-10T16:12:44.826Z,97876.31
2022-09-10T16:15:11.195Z,97878.28
2022-09-10T16:17:37.542Z,97882.28
2022-09-10T16:20:04.083Z,97880.69
2022-09-10T16:22:30.620Z,97876.28
2022-09-10T16:24:56.999Z,97883.06
2022-09-10T16:27:24.487Z,97875.47
2022-09-10T16:29:50.882Z,97883.88
2022-09-10T16:32:17.201Z,97879.44
2022-09-10T16:34:43.678Z,97881.84
2022-09-10T16:37:10.063Z,97877.44
2022-09-10T16:39:36.632Z,97893.84
2022-09-10T16:42:03.026Z,97891.84
2022-09-10T16:44:29.445Z,97895.47
2022-09-10T16:46:57.663Z,97899.88
2022-09-10T16:49:24.054Z,97897.50
2022-09-10T16:51:50.750Z,97897.47
2022-09-10T16:54:19.938Z,97899.88
2022-09-10T16:56:46.928Z,97901.47
2022-09-10T16:59:17.737Z,97897.91
2022-09-10T17:01:44.316Z,97896.69
2022-09-10T17:04:18.493Z,97898.28
2022-09-10T17:06:46.192Z,97899.44
2022-09-10T17:09:12.784Z,97890.25
2022-09-10T17:11:39.188Z,97895.38
2022-09-10T17:14:05.629Z,97884.56
2022-09-10T17:16:32.791Z,97894.97
2022-09-10T17:19:07.012Z,97894.91
2022-09-10T17:21:34.567Z,97887.72
2022-09-10T17:24:02.153Z,97898.91
2022-09-10T17:26:28.925Z,97896.91
2022-09-10T17:28:55.823Z,97889.34
2022-09-10T17:31:22.457Z,97906.91
2022-09-10T17:33:48.864Z,97904.09
2022-09-10T17:36:15.237Z,97904.50
2022-09-10T17:38:41.751Z,97898.84
2022-09-10T17:41:08.283Z,97907.22
2022-09-10T17:43:35.163Z,97909.22
2022-09-10T17:46:05.314Z,97906.06
2022-09-10T17:48:31.654Z,97914.41
2022-09-10T17:50:59.293Z,97920.06
2022-09-10T17:53:25.602Z,97921.28
2022-09-10T17:55:51.954Z,97924.38
2022-09-10T17:58:18.329Z,97917.50
2022-09-10T18:00:48.533Z,97938.97
2022-09-10T18:03:17.895Z,97932.19
2022-09-10T18:05:44.600Z,97941.66
2022-09-10T18:08:11.027Z,97944.81
2022-09-10T18:10:37.449Z,97947.25
2022-09-10T18:13:03.762Z,97948.00
2022-09-10T18:15:30.074Z,97955.25
2022-09-10T18:17:58.790Z,97947.25
2022-09-10T18:20:28.395Z,97962.06
2022-09-10T18:22:55.192Z,97960.97
2022-09-10T18:25:21.909Z,97969.69
2022-09-10T18:27:50.127Z,97971.22
2022-09-10T18:30:16.451Z,97964.81
2022-09-10T18:32:42.765Z,97973.56
2022-09-10T18:35:09.072Z,97977.16
2022-09-10T18:37:35.382Z,97983.91
2022-09-10T18:40:02.340Z,97992.22
2022-09-10T18:42:29.019Z,97985.81
2022-09-10T18:44:55.349Z,97995.00
2022-09-10T18:47:41.177Z,97993.16
2022-09-10T18:50:08.039Z,97996.00
2022-09-10T18:52:36.075Z,97990.84
2022-09-10T18:55:02.509Z,97990.41
2022-09-10T18:57:29.662Z,97991.25
2022-09-10T18:59:56.391Z,97989.19
2022-09-10T19:02:22.775Z,97997.22
2022-09-10T19:05:09.867Z,98001.03
2022-09-10T19:07:35.459Z,97999.03
2022-09-10T19:10:04.051Z,98010.66
2022-09-10T19:12:30.353Z,98008.28
2022-09-10T19:14:56.902Z,98000.03
2022-09-10T19:17:23.858Z,98005.25
2022-09-10T19:19:50.699Z,98011.16
2022-09-10T19:22:18.079Z,98011.56
2022-09-10T19:24:54.412Z,98016.75
2022-09-10T19:27:21.333Z,98015.81
2022-09-10T19:29:49.606Z,98019.84
2022-09-10T19:32:17.093Z,98024.22
2022-09-10T19:34:43.576Z,98023.88
2022-09-10T19:37:09.944Z,98027.91
2022-09-10T19:39:36.367Z,98033.97
2022-09-10T19:42:02.811Z,98034.69
2022-09-10T19:44:29.359Z,98034.66
2022-09-10T19:46:55.752Z,98042.53
2022-09-10T19:49:22.244Z,98042.84
2022-09-10T19:51:48.612Z,98045.97
2022-09-10T19:54:14.947Z,98039.59
2022-09-10T19:56:42.317Z,98041.59
2022-09-10T19:59:09.779Z,98040.06
2022-09-10T20:01:40.227Z,98044.72
2022-09-10T20:04:07.189Z,98049.50
2022-09-10T20:06:33.819Z,98052.75
2022-09-10T20:09:00.181Z,98049.59
2022-09-10T20:11:27.768Z,98052.84
2022-09-10T20:13:57.846Z,98037.31
2022-09-10T20:16:25.092Z,98041.34
2022-09-10T20:18:51.514Z,98046.19
2022-09-10T20:21:22.611Z,98046.59
2022-09-10T20:23:50.956Z,98047.44
2022-09-10T20:26:18.427Z,98043.44
2022-09-10T20:28:44.755Z,98049.47
2022-09-10T20:31:11.765Z,98047.53
2022-09-10T20:33:38.529Z,98049.97
2022-09-10T20:36:05.544Z,98052.31
2022-09-10T20:38:33.533Z,98044.38
2022-09-10T20:41:00.781Z,98052.31
2022-09-10T20:43:27.448Z,98052.72
2022-09-10T20:45:53.825Z,98061.13
2022-09-10T20:48:20.161Z,98057.94
2022-09-10T20:50:56.127Z,98054.31
2022-09-10T20:53:22.500Z,98055.97
2022-09-10T20:55:49.074Z,98059.09
2022-09-10T20:58:15.653Z,98057.56
2022-09-10T21:00:43.238Z,98065.19
2022-09-10T21:03:09.787Z,98059.66
2022-09-10T21:05:36.279Z,98070.03
2022-09-10T21:08:03.325Z,98068.81
2022-09-10T21:10:29.654Z,98066.00
2022-09-10T21:12:56.967Z,98071.16
2022-09-10T21:15:23.374Z,98073.16
2022-09-10T21:17:50.028Z,98075.16
2022-09-10T21:20:16.413Z,98068.72
2022-09-10T21:22:42.732Z,98067.09
2022-09-10T21:25:09.144Z,98073.06
2022-09-10T21:27:35.472Z,98074.59
2022-09-10T21:30:03.974Z,98069.03
2022-09-10T21:32:30.890Z,98077.81
2022-09-10T21:34:57.219Z,98068.56
2022-09-10T21:37:26.329Z,98076.59
2022-09-10T21:39:55.389Z,98079.44
2022-09-10T21:42:21.733Z,98071.47
2022-09-10T21:44:48.062Z,98066.75
2022-09-10T21:47:14.411Z,98071.22
2022-09-10T21:49:40.732Z,98067.22
2022-09-10T21:52:07.423Z,98061.25
2022-09-10T21:54:33.893Z,98072.09
2022-09-10T21:57:00.214Z,98073.38
2022-09-10T21:59:26.968Z,98067.00
2022-09-10T22:01:54.381Z,98082.25
2022-09-10T22:04:23.185Z,98081.03
2022-09-10T22:06:49.816Z,98096.63
2022-09-10T22:09:16.206Z,98088.19
2022-09-10T22:11:46.775Z,98089.38
2022-09-10T22:14:16.937Z,98104.66
2022-09-10T22:16:43.284Z,98093.09
2022-09-10T22:19:11.226Z,98098.34
2022-09-10T22:21:38.250Z,98097.97
2022-09-10T22:24:06.348Z,98099.56
2022-09-10T22:26:33.432Z,98110.44
2022-09-10T22:28:59.865Z,98112.03
2022-09-10T22:31:27.305Z,98114.44
2022-09-10T22:33:54.459Z,98116.03
2022-09-10T22:36:24.723Z,98116.44
2022-09-10T22:38:51.739Z,98120.44
2022-09-10T22:41:18.892Z,98114.84
2022-09-10T22:43:45.356Z,98119.50
2022-09-10T22:46:11.787Z,98117.75
2022-09-10T22:48:38.541Z,98120.16
2022-09-10T22:51:05.323Z,98115.47
2022-09-10T22:53:31.670Z,98115.97
2022-09-10T22:55:58.177Z,98119.25
2022-09-10T22:58:24.847Z,98134.06
2022-09-10T23:00:51.253Z,98135.25
2022-09-10T23:03:17.743Z,98142.47
2022-09-10T23:05:44.120Z,98138.06
2022-09-10T23:08:10.896Z,98144.06
2022-09-10T23:10:37.214Z,98150.06
2022-09-10T23:13:04.028Z,98152.09
2022-09-10T23:15:31.519Z,98154.91
2022-09-10T23:17:57.934Z,98155.69
2022-09-10T23:20:25.006Z,98150.47
2022-09-10T23:22:51.320Z,98157.69
2022-09-10T23:25:18.656Z,98163.69
2022-09-10T23:27:45.308Z,98165.66
2022-09-10T23:30:12.004Z,98162.78
2022-09-10T23:32:38.331Z,98166.75
2022-09-10T23:35:08.919Z,98161.06
2022-09-10T23:37:35.265Z,98163.00
2022-09-10T23:40:01.798Z,98160.94
2022-09-10T23:42:28.917Z,98172.50
2022-09-10T23:44:55.761Z,98174.03
2022-09-10T23:47:22.114Z,98168.66
2022-09-10T23:49:48.810Z,98167.88
2022-09-10T23:52:15.790Z,98167.38
2022-09-10T23:54:42.284Z,98164.19
2022-09-10T23:57:08.602Z,98156.97
2022-09-10T23:59:34.942Z,98160.53
